createdAt,value
2019-04-30T00:01:15.205Z,99.90
2019-04-30T00:04:00.628Z,99.90
2019-04-30T00:09:05.369Z,99.90
2019-04-30T00:11:38.047Z,99.90
2019-04-30T00:14:09.119Z,99.90
2019-04-30T00:16:40.179Z,99.90
2019-04-30T00:19:15.761Z,99.90
2019-04-30T00:21:48.313Z,99.90
2019-04-30T00:24:17.779Z,99.90
2019-04-30T00:26:52.413Z,99.90
2019-04-30T00:29:27.054Z,99.90
2019-04-30T00:31:57.685Z,99.90
2019-04-30T00:34:30.914Z,99.90
2019-04-30T00:36:59.904Z,99.90
2019-04-30T00:39:31.005Z,99.90
2019-04-30T00:42:02.087Z,99.90
2019-04-30T00:44:33.132Z,99.90
2019-04-30T00:47:08.147Z,99.90
2019-04-30T00:49:37.690Z,99.90
2019-04-30T00:52:08.733Z,99.90
2019-04-30T00:54:39.937Z,99.90
2019-04-30T00:57:10.931Z,99.90
2019-04-30T00:59:44.649Z,99.90
2019-04-30T01:02:35.624Z,99.90
2019-04-30T01:05:11.159Z,99.90
2019-04-30T01:07:48.751Z,99.90
2019-04-30T01:10:19.573Z,99.90
2019-04-30T01:12:50.211Z,99.90
2019-04-30T01:15:21.081Z,99.90
2019-04-30T01:17:53.734Z,99.90
2019-04-30T01:20:31.113Z,99.90
2019-04-30T01:22:58.750Z,99.90
2019-04-30T01:25:31.159Z,99.90
2019-04-30T01:28:02.235Z,99.90
2019-04-30T01:30:33.759Z,99.90
2019-04-30T01:33:04.791Z,99.90
2019-04-30T01:35:35.855Z,99.90
2019-04-30T01:38:11.114Z,99.90
2019-04-30T01:40:46.974Z,99.90
2019-04-30T01:43:15.299Z,99.90
2019-04-30T01:45:46.354Z,99.90
2019-04-30T01:48:19.315Z,99.90
2019-04-30T01:50:50.374Z,99.90
2019-04-30T01:53:21.355Z,99.90
2019-04-30T01:58:59.597Z,99.90
2019-04-30T02:04:02.110Z,99.90
2019-04-30T02:06:33.110Z,99.90
2019-04-30T02:09:05.060Z,99.90
2019-04-30T02:11:38.855Z,99.90
2019-04-30T02:14:09.975Z,99.90
2019-04-30T02:16:40.939Z,99.90
2019-04-30T02:19:11.980Z,99.90
2019-04-30T02:21:42.958Z,99.90
2019-04-30T02:24:13.940Z,99.90
2019-04-30T02:26:44.938Z,99.90
2019-04-30T02:29:15.979Z,99.90
2019-04-30T02:31:46.959Z,99.90
2019-04-30T02:34:31.162Z,99.90
2019-04-30T02:37:15.067Z,99.90
2019-04-30T02:39:46.147Z,99.90
2019-04-30T02:42:20.150Z,99.90
2019-04-30T02:44:51.979Z,99.90
2019-04-30T02:47:24.382Z,99.90
2019-04-30T02:50:11.392Z,99.90
2019-04-30T02:52:30.297Z,99.90
2019-04-30T02:55:04.117Z,99.90
2019-04-30T02:57:35.251Z,99.90
2019-04-30T03:00:20.338Z,99.90
2019-04-30T03:02:51.173Z,99.90
2019-04-30T03:05:22.315Z,99.90
2019-04-30T03:07:53.728Z,99.90
2019-04-30T03:10:24.946Z,99.90
2019-04-30T03:12:59.761Z,99.90
2019-04-30T03:15:30.134Z,99.90
2019-04-30T03:18:14.144Z,99.90
2019-04-30T03:20:56.134Z,99.90
2019-04-30T03:23:29.313Z,99.90
2019-04-30T03:26:00.041Z,99.90
2019-04-30T03:28:31.279Z,99.90
2019-04-30T03:31:04.272Z,99.90
2019-04-30T03:33:35.411Z,99.90
2019-04-30T03:36:11.032Z,99.90
2019-04-30T03:38:39.601Z,99.90
2019-04-30T03:41:12.368Z,99.90
2019-04-30T03:43:43.564Z,99.90
2019-04-30T03:46:14.560Z,99.90
2019-04-30T03:48:45.932Z,99.90
2019-04-30T03:51:16.924Z,99.90
2019-04-30T03:53:50.113Z,99.90
2019-04-30T03:56:22.906Z,99.90
2019-04-30T03:58:53.155Z,99.90
2019-04-30T04:01:46.116Z,99.90
2019-04-30T04:04:33.228Z,99.90
2019-04-30T04:07:26.366Z,99.90
2019-04-30T04:10:05.299Z,99.90
2019-04-30T04:12:36.300Z,99.90
2019-04-30T04:15:10.187Z,99.90
2019-04-30T04:17:40.263Z,99.90
2019-04-30T04:20:11.568Z,99.90
2019-04-30T04:22:42.663Z,99.90
2019-04-30T04:25:13.728Z,99.90
2019-04-30T04:27:44.703Z,99.90
2019-04-30T04:30:15.980Z,99.90
2019-04-30T04:32:46.975Z,99.90
2019-04-30T04:35:19.820Z,99.90
2019-04-30T04:37:50.563Z,99.90
2019-04-30T04:40:21.732Z,99.90
2019-04-30T04:42:52.812Z,99.90
2019-04-30T04:45:23.794Z,99.90
2019-04-30T04:47:54.813Z,99.90
2019-04-30T04:50:25.864Z,99.90
2019-04-30T04:57:59.639Z,99.90
2019-04-30T05:00:29.735Z,99.90
2019-04-30T05:03:15.751Z,99.90
2019-04-30T05:05:46.725Z,99.90
2019-04-30T05:08:18.549Z,99.90
2019-04-30T05:10:49.991Z,99.90
2019-04-30T05:13:20.986Z,99.90
2019-04-30T05:15:51.990Z,99.90
2019-04-30T05:18:22.951Z,99.90
2019-04-30T05:20:53.967Z,99.90
2019-04-30T05:23:24.935Z,99.90
2019-04-30T05:25:56.131Z,99.90
2019-04-30T05:33:28.605Z,99.90
2019-04-30T05:35:59.720Z,99.90
2019-04-30T05:38:31.329Z,99.90
2019-04-30T05:41:02.513Z,99.90
2019-04-30T05:43:33.535Z,99.90
2019-04-30T05:46:04.583Z,99.90
2019-04-30T05:48:35.659Z,99.90
2019-04-30T05:51:06.639Z,99.90
2019-04-30T05:53:39.221Z,99.90
2019-04-30T05:56:10.419Z,99.90
2019-04-30T05:58:41.777Z,99.90
2019-04-30T06:01:12.749Z,99.90
2019-04-30T06:03:43.811Z,99.90
2019-04-30T06:06:14.799Z,99.90
2019-04-30T06:09:05.944Z,99.90
2019-04-30T06:11:45.512Z,99.90
2019-04-30T06:14:31.347Z,99.90
2019-04-30T06:17:09.764Z,99.90
2019-04-30T06:19:40.675Z,99.90
2019-04-30T06:22:11.766Z,98.40
2019-04-30T06:24:42.830Z,97.70
2019-04-30T06:27:14.028Z,97.70
2019-04-30T06:29:45.118Z,97.00
2019-04-30T06:32:16.120Z,96.30
2019-04-30T06:34:49.834Z,92.90
2019-04-30T06:37:20.742Z,93.60
2019-04-30T06:39:51.736Z,91.70
2019-04-30T06:42:22.826Z,91.30
2019-04-30T06:44:54.030Z,90.30
2019-04-30T06:47:32.702Z,87.10
2019-04-30T06:49:58.802Z,86.80
2019-04-30T06:52:30.395Z,89.40
2019-04-30T06:55:02.355Z,84.70
2019-04-30T06:57:33.410Z,77.20
2019-04-30T07:02:35.051Z,67.90
2019-04-30T07:05:09.952Z,61.50
2019-04-30T07:07:41.839Z,60.40
2019-04-30T07:10:21.092Z,58.20
2019-04-30T07:13:12.023Z,55.10
2019-04-30T07:15:43.919Z,54.60
2019-04-30T07:18:15.863Z,52.90
2019-04-30T07:20:48.506Z,51.90
2019-04-30T07:23:19.680Z,52.50
2019-04-30T07:25:51.726Z,51.50
2019-04-30T07:31:10.164Z,55.50
2019-04-30T07:33:29.562Z,56.60
2019-04-30T07:36:01.789Z,58.20
2019-04-30T07:38:35.782Z,59.50
2019-04-30T07:41:09.388Z,61.30
2019-04-30T07:43:40.703Z,60.90
2019-04-30T07:46:12.384Z,59.20
2019-04-30T07:48:44.129Z,60.50
2019-04-30T07:51:16.537Z,59.70
2019-04-30T07:53:49.914Z,60.40
2019-04-30T07:56:27.953Z,59.00
2019-04-30T07:58:55.156Z,57.30
2019-04-30T08:01:26.339Z,57.10
2019-04-30T08:04:03.311Z,56.50
2019-04-30T08:06:34.578Z,57.00
2019-04-30T08:09:10.330Z,56.80
2019-04-30T08:09:34.155Z,53.90
2019-04-30T08:11:43.523Z,52.50
2019-04-30T08:14:14.335Z,48.30
2019-04-30T08:16:45.936Z,44.40
2019-04-30T08:19:19.112Z,42.20
2019-04-30T08:21:50.802Z,38.30
2019-04-30T08:24:22.508Z,38.20
2019-04-30T08:26:54.235Z,37.20
2019-04-30T08:29:25.977Z,35.70
2019-04-30T08:31:59.329Z,34.70
2019-04-30T08:34:32.505Z,33.30
2019-04-30T08:37:16.771Z,31.60
2019-04-30T08:39:39.605Z,31.90
2019-04-30T08:42:11.031Z,31.10
2019-04-30T08:44:42.824Z,32.40
2019-04-30T08:47:14.644Z,31.40
2019-04-30T08:49:46.673Z,31.30
2019-04-30T08:52:19.425Z,30.10
2019-04-30T08:54:51.683Z,30.00
2019-04-30T08:57:23.568Z,28.80
2019-04-30T08:59:55.276Z,28.30
2019-04-30T09:02:28.879Z,28.00
2019-04-30T09:05:04.513Z,28.80
2019-04-30T09:07:36.291Z,28.20
2019-04-30T09:10:09.242Z,28.00
2019-04-30T09:12:41.151Z,27.70
2019-04-30T09:15:13.111Z,27.50
2019-04-30T09:17:58.057Z,28.50
2019-04-30T09:20:19.414Z,28.80
2019-04-30T09:22:50.943Z,29.90
2019-04-30T09:25:22.727Z,28.50
2019-04-30T09:27:54.162Z,27.10
2019-04-30T09:30:25.956Z,27.40
2019-04-30T09:32:59.384Z,27.50
2019-04-30T09:35:32.196Z,26.30
2019-04-30T09:38:03.235Z,25.90
2019-04-30T09:40:34.518Z,26.20
2019-04-30T09:43:05.884Z,26.70
2019-04-30T09:45:38.546Z,25.80
2019-04-30T09:48:09.847Z,25.20
2019-04-30T09:50:41.307Z,24.60
2019-04-30T09:53:12.828Z,24.70
2019-04-30T09:55:44.244Z,24.20
2019-04-30T10:00:59.196Z,22.60
2019-04-30T10:03:31.239Z,24.10
2019-04-30T10:06:02.995Z,23.60
2019-04-30T10:08:46.112Z,22.80
2019-04-30T10:11:24.752Z,23.40
2019-04-30T10:13:56.067Z,21.80
2019-04-30T10:16:46.223Z,22.10
2019-04-30T10:19:19.145Z,22.80
2019-04-30T10:21:50.518Z,23.10
2019-04-30T10:24:21.799Z,22.90
2019-04-30T10:26:53.079Z,22.50
2019-04-30T10:29:24.440Z,21.80
2019-04-30T10:31:55.793Z,22.70
2019-04-30T10:34:27.051Z,21.60
2019-04-30T10:36:59.604Z,22.20
2019-04-30T10:39:31.410Z,21.70
2019-04-30T10:42:02.715Z,23.40
2019-04-30T10:44:34.052Z,22.20
2019-04-30T10:47:05.395Z,20.70
2019-04-30T10:49:38.782Z,20.30
2019-04-30T10:52:09.632Z,20.30
2019-04-30T10:54:40.915Z,20.50
2019-04-30T10:57:12.170Z,21.80
2019-04-30T10:59:43.471Z,21.50
2019-04-30T11:02:14.738Z,20.60
2019-04-30T11:04:46.031Z,19.60
2019-04-30T11:07:18.620Z,19.80
2019-04-30T11:09:50.099Z,19.80
2019-04-30T11:12:21.423Z,19.70
2019-04-30T11:14:52.687Z,19.30
2019-04-30T11:17:25.174Z,19.90
2019-04-30T11:19:56.581Z,19.80
2019-04-30T11:22:28.163Z,18.60
2019-04-30T11:25:02.776Z,18.50
2019-04-30T11:27:34.159Z,18.60
2019-04-30T11:30:19.818Z,19.30
2019-04-30T11:32:40.140Z,19.30
2019-04-30T11:35:11.943Z,18.00
2019-04-30T11:37:43.295Z,18.40
2019-04-30T11:40:17.063Z,18.90
2019-04-30T11:42:48.377Z,19.10
2019-04-30T11:45:23.407Z,18.40
2019-04-30T11:47:54.739Z,18.40
2019-04-30T11:50:26.064Z,19.00
2019-04-30T11:53:14.011Z,18.70
2019-04-30T11:55:30.241Z,18.60
2019-04-30T11:58:01.543Z,18.90
2019-04-30T12:00:36.063Z,18.90
2019-04-30T12:03:09.127Z,19.00
2019-04-30T12:05:40.435Z,18.40
2019-04-30T12:08:19.581Z,18.50
2019-04-30T12:11:03.385Z,17.80
2019-04-30T12:13:34.694Z,18.70
2019-04-30T12:16:06.147Z,21.70
2019-04-30T12:18:37.395Z,20.60
2019-04-30T12:21:10.768Z,22.60
2019-04-30T12:23:42.031Z,20.30
2019-04-30T12:26:13.327Z,19.90
2019-04-30T12:28:44.615Z,19.90
2019-04-30T12:31:15.871Z,19.30
2019-04-30T12:33:47.236Z,18.70
2019-04-30T12:36:18.959Z,17.40
2019-04-30T12:38:50.178Z,17.20
2019-04-30T12:41:21.547Z,18.10
2019-04-30T12:43:52.815Z,18.80
2019-04-30T12:46:24.110Z,18.10
2019-04-30T12:49:04.303Z,17.40
2019-04-30T12:52:03.832Z,16.90
2019-04-30T12:54:59.873Z,18.20
2019-04-30T12:57:34.923Z,17.10
2019-04-30T13:00:09.481Z,16.30
2019-04-30T13:02:40.971Z,16.20
2019-04-30T13:05:13.243Z,16.90
2019-04-30T13:07:44.968Z,16.10
2019-04-30T13:10:17.414Z,16.30
2019-04-30T13:12:49.567Z,16.10
2019-04-30T13:15:21.271Z,15.70
2019-04-30T13:17:52.534Z,15.90
2019-04-30T13:20:24.338Z,15.70
2019-04-30T13:22:55.763Z,16.60
2019-04-30T13:25:33.979Z,17.10
2019-04-30T13:28:06.279Z,16.40
2019-04-30T13:30:39.698Z,16.10
2019-04-30T13:33:26.236Z,14.80
2019-04-30T13:35:58.843Z,15.20
2019-04-30T13:38:49.207Z,15.10
2019-04-30T13:41:23.379Z,15.80
2019-04-30T13:44:19.604Z,15.50
2019-04-30T13:46:50.835Z,16.00
2019-04-30T13:49:22.197Z,15.20
2019-04-30T13:51:53.462Z,15.00
2019-04-30T13:54:24.719Z,15.50
2019-04-30T13:56:55.979Z,15.70
2019-04-30T13:59:27.266Z,16.50
2019-04-30T14:01:58.867Z,16.70
2019-04-30T14:04:58.384Z,17.60
2019-04-30T14:07:59.707Z,16.20
2019-04-30T14:10:32.663Z,18.20
2019-04-30T14:13:05.756Z,16.70
2019-04-30T14:15:37.947Z,15.90
2019-04-30T14:18:09.442Z,16.20
2019-04-30T14:20:40.902Z,16.50
2019-04-30T14:23:12.188Z,16.20
2019-04-30T14:25:55.389Z,16.50
2019-04-30T14:28:16.411Z,16.70
2019-04-30T14:30:47.664Z,16.00
2019-04-30T14:33:26.350Z,17.50
2019-04-30T14:35:51.809Z,19.00
2019-04-30T14:38:23.115Z,19.80
2019-04-30T14:40:54.947Z,20.70
2019-04-30T14:43:33.480Z,23.70
2019-04-30T14:46:33.643Z,21.90
2019-04-30T14:49:23.115Z,21.80
2019-04-30T14:51:55.405Z,22.00
2019-04-30T14:54:37.112Z,21.70
2019-04-30T14:57:15.898Z,21.90
2019-04-30T15:00:15.207Z,21.70
2019-04-30T15:02:51.576Z,23.70
2019-04-30T15:05:23.231Z,22.30
2019-04-30T15:07:54.814Z,20.90
2019-04-30T15:10:26.763Z,21.10
2019-04-30T15:13:00.210Z,22.60
2019-04-30T15:15:31.595Z,25.20
2019-04-30T15:18:03.263Z,27.30
2019-04-30T15:20:34.803Z,27.90
2019-04-30T15:23:43.579Z,27.70
2019-04-30T15:26:22.108Z,25.60
2019-04-30T15:28:49.213Z,24.80
2019-04-30T15:31:21.125Z,24.00
2019-04-30T15:39:52.402Z,29.00
2019-04-30T15:42:24.928Z,31.10
2019-04-30T15:44:56.504Z,32.80
2019-04-30T15:50:02.229Z,34.70
2019-04-30T15:52:34.220Z,37.80
2019-04-30T15:55:06.659Z,36.80
2019-04-30T15:57:57.083Z,37.20
2019-04-30T16:00:31.298Z,38.90
2019-04-30T16:05:42.523Z,36.30
2019-04-30T16:08:29.089Z,37.00
2019-04-30T16:11:22.529Z,38.30
2019-04-30T16:14:19.327Z,38.50
2019-04-30T16:17:15.654Z,38.10
2019-04-30T16:19:46.683Z,38.90
2019-04-30T16:22:20.783Z,40.40
2019-04-30T16:24:54.441Z,40.10
2019-04-30T16:27:24.418Z,41.80
2019-04-30T16:32:25.947Z,39.40
2019-04-30T16:34:56.932Z,39.60
2019-04-30T16:37:28.698Z,40.80
2019-04-30T16:40:00.890Z,39.70
2019-04-30T16:42:32.549Z,40.70
2019-04-30T16:45:03.695Z,40.50
2019-04-30T16:50:08.423Z,41.70
2019-04-30T16:52:40.247Z,42.90
2019-04-30T16:55:11.467Z,43.40
2019-04-30T16:57:43.612Z,43.70
2019-04-30T17:00:17.243Z,44.70
2019-04-30T17:02:53.402Z,43.60
2019-04-30T17:05:32.771Z,44.70
2019-04-30T17:08:23.465Z,45.60
2019-04-30T17:11:26.319Z,45.70
2019-04-30T17:14:03.212Z,44.40
2019-04-30T17:16:34.196Z,44.40
2019-04-30T17:19:06.259Z,45.10
2019-04-30T17:21:37.820Z,45.60
2019-04-30T17:24:08.903Z,47.70
2019-04-30T17:26:40.864Z,48.70
2019-04-30T17:29:13.543Z,48.70
2019-04-30T17:31:44.547Z,47.70
2019-04-30T17:34:15.540Z,48.40
2019-04-30T17:36:46.670Z,48.40
2019-04-30T17:39:19.816Z,48.80
2019-04-30T17:41:50.875Z,49.30
2019-04-30T17:44:22.511Z,49.60
2019-04-30T17:46:53.508Z,50.40
2019-04-30T17:49:24.555Z,50.50
2019-04-30T17:51:55.715Z,49.70
2019-04-30T17:54:26.763Z,49.80
2019-04-30T17:56:57.756Z,50.10
2019-04-30T17:59:28.811Z,50.40
2019-04-30T18:02:02.983Z,50.40
2019-04-30T18:04:34.323Z,50.20
2019-04-30T18:07:05.722Z,51.00
2019-04-30T18:09:38.822Z,50.90
2019-04-30T18:12:09.859Z,51.30
2019-04-30T18:14:41.095Z,52.80
2019-04-30T18:17:12.450Z,52.70
2019-04-30T18:19:50.696Z,53.40
2019-04-30T18:25:30.187Z,55.60
2019-04-30T18:28:01.917Z,57.70
2019-04-30T18:30:35.251Z,59.70
2019-04-30T18:33:06.648Z,60.20
2019-04-30T18:35:38.838Z,59.70
2019-04-30T18:38:10.280Z,59.10
2019-04-30T18:40:41.497Z,59.30
2019-04-30T18:43:12.851Z,60.10
2019-04-30T18:45:44.083Z,60.90
2019-04-30T18:48:15.561Z,60.90
2019-04-30T18:50:46.890Z,58.30
2019-04-30T18:53:22.296Z,57.00
2019-04-30T18:55:53.481Z,56.60
2019-04-30T18:58:36.792Z,56.00
2019-04-30T19:00:59.166Z,55.80
2019-04-30T19:03:30.304Z,55.70
2019-04-30T19:06:05.503Z,56.10
2019-04-30T19:08:55.379Z,56.10
2019-04-30T19:11:34.142Z,56.20
2019-04-30T19:14:26.339Z,56.90
2019-04-30T19:17:15.351Z,57.60
2019-04-30T19:20:05.222Z,58.10
2019-04-30T19:22:36.599Z,58.70
2019-04-30T19:25:08.968Z,59.10
2019-04-30T19:30:10.627Z,59.30
2019-04-30T19:35:11.995Z,59.50
2019-04-30T19:37:43.271Z,59.60
2019-04-30T19:40:14.539Z,59.70
2019-04-30T19:42:48.337Z,59.40
2019-04-30T19:45:19.035Z,59.50
2019-04-30T19:47:50.851Z,59.60
2019-04-30T19:50:22.339Z,59.80
2019-04-30T19:52:53.867Z,59.80
2019-04-30T19:55:25.089Z,60.00
2019-04-30T19:57:56.121Z,60.50
2019-04-30T20:00:29.088Z,61.30
2019-04-30T20:03:00.507Z,62.30
2019-04-30T20:05:32.094Z,63.90
2019-04-30T20:08:03.507Z,65.10
2019-04-30T20:10:35.307Z,65.60
2019-04-30T20:13:06.535Z,66.50
2019-04-30T20:15:39.214Z,66.90
2019-04-30T20:18:10.883Z,67.60
2019-04-30T20:23:14.560Z,70.30
2019-04-30T20:25:46.095Z,71.30
2019-04-30T20:28:17.463Z,71.90
2019-04-30T20:30:49.046Z,73.80
2019-04-30T20:33:20.808Z,73.40
2019-04-30T20:38:42.482Z,74.90
2019-04-30T20:41:13.571Z,76.00
2019-04-30T20:43:44.554Z,77.50
2019-04-30T20:46:15.528Z,78.90
2019-04-30T20:48:46.538Z,80.50
2019-04-30T20:51:19.564Z,82.00
2019-04-30T20:53:50.712Z,85.00
2019-04-30T20:58:57.792Z,88.50
2019-04-30T21:01:24.856Z,89.90
2019-04-30T21:03:55.862Z,92.30
2019-04-30T21:06:26.911Z,95.00
2019-04-30T21:08:58.100Z,97.80
2019-04-30T21:11:30.135Z,98.60
2019-04-30T21:14:01.365Z,99.40
2019-04-30T21:16:32.367Z,99.20
2019-04-30T21:19:03.411Z,97.60
2019-04-30T21:21:34.583Z,97.50
2019-04-30T21:24:05.659Z,98.00
2019-04-30T21:26:38.334Z,99.10
2019-04-30T21:29:13.713Z,99.90
2019-04-30T21:31:48.809Z,99.90
2019-04-30T21:34:44.519Z,99.90
2019-04-30T21:37:15.490Z,99.90
2019-04-30T21:39:49.971Z,99.90
2019-04-30T21:42:19.102Z,99.90
2019-04-30T21:44:50.083Z,99.90
2019-04-30T21:49:51.223Z,99.90
2019-04-30T21:54:52.359Z,99.90
2019-04-30T21:57:23.355Z,99.90
2019-04-30T21:59:54.411Z,99.90
2019-04-30T22:02:25.527Z,99.90
2019-04-30T22:04:56.578Z,99.90
2019-04-30T22:07:29.347Z,99.90
2019-04-30T22:10:00.230Z,99.90
2019-04-30T22:12:31.311Z,99.90
2019-04-30T22:15:36.284Z,99.90
2019-04-30T22:18:12.435Z,99.90
2019-04-30T22:20:43.911Z,99.90
2019-04-30T22:23:15.146Z,99.90
2019-04-30T22:25:49.004Z,99.90
2019-04-30T22:28:20.315Z,99.90
2019-04-30T22:30:51.318Z,99.90
2019-04-30T22:35:58.207Z,99.90
2019-04-30T22:38:32.447Z,99.90
2019-04-30T22:41:04.629Z,99.90
2019-04-30T22:43:35.622Z,99.90
2019-04-30T22:46:11.706Z,99.90
2019-04-30T22:48:42.808Z,99.90
2019-04-30T22:51:13.788Z,99.90
2019-04-30T22:53:44.795Z,99.90
2019-04-30T22:56:15.776Z,99.90
2019-04-30T22:58:46.774Z,99.90
2019-04-30T23:01:41.266Z,99.90
2019-04-30T23:04:16.375Z,99.90
2019-04-30T23:06:47.355Z,99.90
2019-04-30T23:09:18.657Z,99.90
2019-04-30T23:11:49.803Z,99.90
2019-04-30T23:14:21.997Z,99.90
2019-04-30T23:16:52.932Z,99.90
2019-04-30T23:21:54.116Z,99.90
2019-04-30T23:24:25.109Z,99.90
2019-04-30T23:26:56.111Z,99.90
2019-04-30T23:29:27.087Z,99.90
2019-04-30T23:31:58.154Z,99.90
2019-04-30T23:34:30.192Z,99.90
2019-04-30T23:37:01.163Z,99.90
2019-04-30T23:39:32.311Z,99.90
2019-04-30T23:42:03.335Z,99.90
2019-04-30T23:47:29.314Z,99.90
2019-04-30T23:50:00.511Z,99.90
2019-04-30T23:52:31.803Z,99.90
2019-04-30T23:55:02.923Z,99.90
2019-04-30T23:57:34.187Z,99.90
